AEA1094 EHAM-LEMD
Flight info
| Callsign | AEA1094 |
|---|---|
| Flight time | N/A |
| Altitude | 34000 |
| Route | WOODY N872 CIV DCT KOVIN DCT DUCRA DCT RESMI DCT DEKOD DCT DISAK DCT ARKIP DCT ARNAV DCT LMG DCT UVELI DCT OSMOB DCT ARVID DCT PPN DCT NOLSA DCT ALEPO DCT VASUM N10 BANEV |
| Aircraft | B738/M-SDE2E3FGHIRWXY/LB1 |
Departure
| Time | 2026-04-18 09:42 |
|---|---|
| Airport | Amsterdam Airport Schiphol (EHAM) |
Arrival
| Time | N/A |
|---|---|
| Airport | Adolfo Suárez Madrid–Barajas Airport (LEMD) |
| Time | Latitude | Longitude | Altitude | Speed | Heading |
|---|---|---|---|---|---|
| 2026-04-18 09:20 | 52.30895 | 4.77238 | -2 ft | 0 kts | 3° |
| 2026-04-18 09:34 | 52.30886 | 4.77237 | -2 ft | 4 kts | 7° |
| 2026-04-18 09:35 | 52.30861 | 4.77227 | 9 ft | 4 kts | 33° |
| 2026-04-18 09:35 | 52.30845 | 4.77198 | -2 ft | 4 kts | 82° |
| 2026-04-18 09:35 | 52.30844 | 4.77186 | -2 ft | 1 kts | 95° |
| 2026-04-18 09:38 | 52.30843 | 4.77211 | -2 ft | 6 kts | 95° |
| 2026-04-18 09:38 | 52.30839 | 4.77332 | -2 ft | 13 kts | 91° |
| 2026-04-18 09:38 | 52.30813 | 4.77463 | -2 ft | 13 kts | 162° |
| 2026-04-18 09:38 | 52.30725 | 4.77457 | -2 ft | 13 kts | 184° |
| 2026-04-18 09:39 | 52.30642 | 4.77482 | -2 ft | 12 kts | 154° |
| 2026-04-18 09:39 | 52.30574 | 4.77538 | -2 ft | 7 kts | 153° |
| 2026-04-18 09:39 | 52.30556 | 4.77554 | -2 ft | 0 kts | 153° |
| 2026-04-18 09:40 | 52.30546 | 4.77561 | -2 ft | 6 kts | 153° |
| 2026-04-18 09:40 | 52.30491 | 4.77607 | -2 ft | 10 kts | 153° |
| 2026-04-18 09:40 | 52.30431 | 4.77646 | -2 ft | 9 kts | 179° |
| 2026-04-18 09:41 | 52.30388 | 4.77578 | -3 ft | 9 kts | 240° |
| 2026-04-18 09:41 | 52.30344 | 4.77454 | -3 ft | 30 kts | 239° |
| 2026-04-18 09:41 | 52.30104 | 4.76826 | -3 ft | 98 kts | 238° |
| 2026-04-18 09:41 | 52.29645 | 4.75626 | 0 ft | 152 kts | 240° |
| 2026-04-18 09:42 | 52.29071 | 4.74070 | 466 ft | 162 kts | 242° |
| 2026-04-18 09:42 | 52.28500 | 4.72448 | 1251 ft | 160 kts | 243° |
| 2026-04-18 09:42 | 52.27969 | 4.70845 | 1941 ft | 167 kts | 243° |
| 2026-04-18 09:42 | 52.27359 | 4.69106 | 2471 ft | 181 kts | 240° |
| 2026-04-18 09:43 | 52.26519 | 4.67562 | 3106 ft | 187 kts | 217° |
| 2026-04-18 09:43 | 52.25186 | 4.67002 | 3392 ft | 218 kts | 175° |
| 2026-04-18 09:43 | 52.23824 | 4.68181 | 3908 ft | 234 kts | 144° |
| 2026-04-18 09:43 | 52.22537 | 4.69835 | 4527 ft | 237 kts | 151° |
| 2026-04-18 09:44 | 52.21133 | 4.71264 | 5281 ft | 236 kts | 155° |
| 2026-04-18 09:44 | 52.19694 | 4.72567 | 6052 ft | 237 kts | 157° |
| 2026-04-18 09:44 | 52.18222 | 4.73822 | 6756 ft | 240 kts | 158° |
| 2026-04-18 09:44 | 52.16714 | 4.74998 | 7391 ft | 244 kts | 166° |
| 2026-04-18 09:45 | 52.14997 | 4.75744 | 7648 ft | 264 kts | 172° |
| 2026-04-18 09:45 | 52.13168 | 4.76384 | 8250 ft | 272 kts | 172° |
| 2026-04-18 09:45 | 52.11310 | 4.77040 | 8979 ft | 275 kts | 172° |
| 2026-04-18 09:45 | 52.09463 | 4.77712 | 9702 ft | 278 kts | 172° |
| 2026-04-18 09:46 | 52.07559 | 4.78425 | 10404 ft | 281 kts | 171° |
| 2026-04-18 09:46 | 52.05589 | 4.79173 | 10672 ft | 301 kts | 171° |
| 2026-04-18 09:46 | 52.03474 | 4.79981 | 10841 ft | 322 kts | 171° |
| 2026-04-18 09:46 | 52.01225 | 4.80846 | 11002 ft | 342 kts | 171° |
| 2026-04-18 09:47 | 51.98816 | 4.81220 | 11119 ft | 355 kts | 190° |
| 2026-04-18 09:47 | 51.96445 | 4.80054 | 11467 ft | 360 kts | 207° |
| 2026-04-18 09:47 | 51.94180 | 4.78245 | 11998 ft | 365 kts | 209° |
| 2026-04-18 09:47 | 51.91899 | 4.76387 | 12622 ft | 369 kts | 209° |
| 2026-04-18 09:48 | 51.89616 | 4.74557 | 13288 ft | 372 kts | 208° |
| 2026-04-18 09:48 | 51.87280 | 4.72716 | 13958 ft | 374 kts | 208° |
| 2026-04-18 09:48 | 51.84915 | 4.70866 | 14566 ft | 378 kts | 208° |
| 2026-04-18 09:48 | 51.82543 | 4.69015 | 15193 ft | 381 kts | 208° |
| 2026-04-18 09:49 | 51.80143 | 4.67147 | 15814 ft | 383 kts | 208° |
| 2026-04-18 09:49 | 51.77737 | 4.65276 | 16410 ft | 386 kts | 208° |
| 2026-04-18 09:49 | 51.75301 | 4.63382 | 16993 ft | 389 kts | 208° |
| 2026-04-18 09:49 | 51.72842 | 4.61472 | 17575 ft | 392 kts | 208° |
| 2026-04-18 09:50 | 51.70400 | 4.59577 | 18134 ft | 395 kts | 208° |
| 2026-04-18 09:50 | 51.67905 | 4.57645 | 18667 ft | 398 kts | 208° |
| 2026-04-18 09:50 | 51.65401 | 4.55707 | 19191 ft | 400 kts | 208° |
| 2026-04-18 09:50 | 51.62881 | 4.53757 | 19758 ft | 400 kts | 208° |
| 2026-04-18 09:51 | 51.60366 | 4.51813 | 20322 ft | 401 kts | 208° |
| 2026-04-18 09:51 | 51.57850 | 4.49869 | 20844 ft | 402 kts | 208° |
| 2026-04-18 09:51 | 51.55324 | 4.47920 | 21345 ft | 404 kts | 209° |
| 2026-04-18 09:51 | 51.52814 | 4.45984 | 21820 ft | 405 kts | 209° |
| 2026-04-18 09:52 | 51.50268 | 4.44023 | 22298 ft | 407 kts | 209° |
| 2026-04-18 09:52 | 51.47704 | 4.42051 | 22720 ft | 409 kts | 209° |
| 2026-04-18 09:52 | 51.45121 | 4.40067 | 23124 ft | 411 kts | 209° |
| 2026-04-18 09:52 | 51.42532 | 4.38081 | 23569 ft | 413 kts | 209° |
| 2026-04-18 09:53 | 51.39934 | 4.36094 | 23968 ft | 414 kts | 208° |
| 2026-04-18 09:53 | 51.37351 | 4.34154 | 24302 ft | 416 kts | 208° |
| 2026-04-18 09:53 | 51.34716 | 4.32193 | 24629 ft | 418 kts | 208° |
| 2026-04-18 09:53 | 51.32067 | 4.30222 | 24972 ft | 420 kts | 208° |
| 2026-04-18 09:54 | 51.29415 | 4.28232 | 25301 ft | 421 kts | 209° |
| 2026-04-18 09:54 | 51.26767 | 4.26215 | 25620 ft | 422 kts | 209° |
| 2026-04-18 09:54 | 51.24106 | 4.24180 | 25866 ft | 425 kts | 209° |
| 2026-04-18 09:54 | 51.21425 | 4.22135 | 26111 ft | 428 kts | 209° |
| 2026-04-18 09:55 | 51.18735 | 4.20092 | 26411 ft | 429 kts | 209° |
| 2026-04-18 09:55 | 51.16058 | 4.18107 | 26718 ft | 431 kts | 207° |
| 2026-04-18 09:55 | 51.13225 | 4.16428 | 27044 ft | 434 kts | 204° |
| 2026-04-18 09:55 | 51.10366 | 4.14904 | 27476 ft | 432 kts | 203° |
| 2026-04-18 09:56 | 51.07509 | 4.13404 | 27936 ft | 430 kts | 203° |
| 2026-04-18 09:56 | 51.04674 | 4.11903 | 28360 ft | 428 kts | 204° |
| 2026-04-18 09:56 | 51.01853 | 4.10388 | 28748 ft | 428 kts | 204° |
| 2026-04-18 09:56 | 50.99043 | 4.08863 | 29149 ft | 426 kts | 204° |
| 2026-04-18 09:57 | 50.96231 | 4.07331 | 29586 ft | 425 kts | 204° |
| 2026-04-18 09:57 | 50.93445 | 4.05813 | 30016 ft | 423 kts | 204° |
| 2026-04-18 09:57 | 50.90657 | 4.04298 | 30405 ft | 422 kts | 204° |
| 2026-04-18 09:57 | 50.87883 | 4.02787 | 30736 ft | 421 kts | 205° |
| 2026-04-18 09:58 | 50.85188 | 4.01170 | 31058 ft | 419 kts | 207° |
| 2026-04-18 09:58 | 50.82492 | 3.99438 | 31386 ft | 417 kts | 207° |
| 2026-04-18 09:58 | 50.79818 | 3.97685 | 31642 ft | 417 kts | 207° |
| 2026-04-18 09:58 | 50.77119 | 3.95917 | 31801 ft | 420 kts | 207° |
| 2026-04-18 09:59 | 50.74409 | 3.94157 | 32084 ft | 420 kts | 207° |
| 2026-04-18 09:59 | 50.71705 | 3.92418 | 32460 ft | 417 kts | 207° |
| 2026-04-18 09:59 | 50.69021 | 3.90701 | 32828 ft | 415 kts | 207° |
| 2026-04-18 10:00 | 50.63692 | 3.87303 | 33406 ft | 415 kts | 207° |
| 2026-04-18 10:00 | 50.61003 | 3.85592 | 33693 ft | 415 kts | 207° |
| 2026-04-18 10:00 | 50.59234 | 3.84467 | 33889 ft | 414 kts | 207° |
| 2026-04-18 10:00 | 50.56553 | 3.82756 | 34107 ft | 414 kts | 208° |
| 2026-04-18 10:01 | 50.53030 | 3.80394 | 34204 ft | 417 kts | 208° |
| 2026-04-18 10:01 | 50.47716 | 3.76734 | 34213 ft | 416 kts | 209° |
| 2026-04-18 10:02 | 50.43288 | 3.73692 | 34211 ft | 413 kts | 208° |
| 2026-04-18 10:02 | 50.38057 | 3.70124 | 34218 ft | 411 kts | 208° |
| 2026-04-18 10:03 | 50.32798 | 3.66554 | 34213 ft | 410 kts | 209° |